Time;durP1;ratioP1;P1;durP2;ratioP2;P2;SDS_P1;SDS_P2;PMS_P1;PMS_P2;Temp;Humidity;BMP_temperature;BMP_pressure;BME280_temperature;BME280_humidity;BME280_pressure;Samples;Min_cycle;Max_cycle;Signal;HPM_P1;HPM_P2
2022/08/26 00:00:40;;;;;;;53.55;48.58;;;20.40;99.90;;;;;;5049558;28;20535;-69
2022/08/26 00:03:06;;;;;;;51.35;46.50;;;20.40;99.90;;;;;;5047689;28;20127;-69
2022/08/26 00:05:33;;;;;;;55.15;50.25;;;20.40;99.90;;;;;;5048863;28;20095;-69
2022/08/26 00:07:59;;;;;;;51.88;47.35;;;20.40;99.90;;;;;;5045182;28;20420;-70
2022/08/26 00:10:25;;;;;;;55.70;50.55;;;20.30;99.90;;;;;;5046456;28;20052;-69
2022/08/26 00:12:50;;;;;;;53.42;48.67;;;20.30;99.90;;;;;;5043905;28;20037;-70
2022/08/26 00:15:17;;;;;;;56.30;51.30;;;20.30;99.90;;;;;;5041824;28;20037;-70
2022/08/26 00:17:43;;;;;;;57.58;52.22;;;20.30;99.90;;;;;;5039569;28;20037;-69
2022/08/26 00:20:12;;;;;;;57.65;51.92;;;20.20;99.90;;;;;;5047650;28;20041;-69
2022/08/26 00:22:37;;;;;;;56.40;51.10;;;20.20;99.90;;;;;;5033152;28;20044;-69
2022/08/26 00:25:04;;;;;;;54.75;49.85;;;20.20;99.90;;;;;;5046198;28;20029;-69
2022/08/26 00:27:32;;;;;;;58.25;52.95;;;20.10;99.90;;;;;;5042971;28;20036;-70
2022/08/26 00:30:00;;;;;;;56.30;51.08;;;20.10;99.90;;;;;;5042474;28;20051;-70
2022/08/26 00:32:26;;;;;;;56.55;51.10;;;20.10;99.90;;;;;;5045735;28;20048;-69
2022/08/26 00:34:52;;;;;;;59.30;53.97;;;20.00;99.90;;;;;;5030780;28;20067;-69
2022/08/26 00:37:17;;;;;;;60.47;54.90;;;20.00;99.90;;;;;;5047930;28;20037;-68
2022/08/26 00:39:43;;;;;;;58.55;52.90;;;20.00;99.90;;;;;;5043752;28;20553;-69
2022/08/26 00:42:09;;;;;;;57.10;51.60;;;20.00;99.90;;;;;;5045239;28;20399;-70
2022/08/26 00:44:35;;;;;;;57.88;52.25;;;20.00;99.90;;;;;;5040325;28;20029;-70
2022/08/26 00:47:06;;;;;;;53.47;47.97;;;20.00;99.90;;;;;;5043197;28;20124;-70
2022/08/26 00:49:43;;;;;;;54.28;48.92;;;20.00;99.90;;;;;;5044661;28;20512;-69
2022/08/26 00:52:13;;;;;;;53.95;48.33;;;20.10;99.90;;;;;;5064377;28;20049;-69
2022/08/26 00:54:45;;;;;;;50.25;45.15;;;20.10;99.90;;;;;;5045114;28;20041;-69
2022/08/26 00:57:14;;;;;;;52.30;46.65;;;20.20;99.90;;;;;;5042314;28;20056;-70
2022/08/26 00:59:41;;;;;;;50.70;45.72;;;20.20;99.90;;;;;;5046578;28;20056;-70
2022/08/26 01:02:06;;;;;;;47.05;42.33;;;20.30;99.90;;;;;;5027798;28;20072;-69
2022/08/26 01:04:35;;;;;;;50.05;44.40;;;20.30;99.90;;;;;;5044753;28;20162;-69
2022/08/26 01:07:02;;;;;;;48.08;43.00;;;20.30;99.90;;;;;;5058699;28;20090;-70
2022/08/26 01:09:29;;;;;;;47.35;42.50;;;20.30;99.90;;;;;;5027725;28;20122;-69
2022/08/26 01:11:57;;;;;;;45.92;41.13;;;20.30;99.90;;;;;;5045843;28;20052;-69
2022/08/26 01:14:28;;;;;;;44.10;39.53;;;20.30;99.90;;;;;;5044485;28;20502;-70
2022/08/26 01:16:54;;;;;;;42.58;38.28;;;20.40;99.90;;;;;;5031120;28;20510;-69
2022/08/26 01:19:31;;;;;;;42.92;38.30;;;20.40;99.90;;;;;;5045683;28;20131;-70
2022/08/26 01:22:16;;;;;;;42.70;38.22;;;20.40;99.90;;;;;;5050414;28;20102;-69
2022/08/26 01:24:43;;;;;;;40.53;36.35;;;20.40;99.90;;;;;;5045211;28;20072;-69
2022/08/26 01:27:12;;;;;;;41.38;35.63;;;20.40;99.90;;;;;;5043178;28;20044;-69
2022/08/26 01:29:41;;;;;;;38.90;35.10;;;20.40;99.90;;;;;;5035259;28;20487;-70
2022/08/26 01:32:10;;;;;;;40.05;35.90;;;20.40;99.90;;;;;;5040724;28;20436;-70
2022/08/26 01:34:38;;;;;;;40.58;35.83;;;20.40;99.90;;;;;;5047146;28;20129;-69
2022/08/26 01:37:14;;;;;;;39.17;35.17;;;20.40;99.90;;;;;;5028694;28;20041;-70
2022/08/26 01:39:40;;;;;;;37.08;33.05;;;20.40;99.90;;;;;;5044105;28;20210;-70
2022/08/26 01:42:11;;;;;;;36.17;32.10;;;20.40;99.90;;;;;;5050610;28;20372;-69
2022/08/26 01:45:00;;;;;;;35.65;31.88;;;20.40;99.90;;;;;;5029305;28;20037;-70
2022/08/26 01:47:29;;;;;;;35.53;31.92;;;20.40;99.90;;;;;;5031771;28;20391;-69
2022/08/26 01:49:57;;;;;;;35.90;32.05;;;20.40;99.90;;;;;;5045073;28;20067;-70
2022/08/26 01:52:26;;;;;;;37.95;31.88;;;20.30;99.90;;;;;;5048085;28;20132;-70
2022/08/26 01:54:54;;;;;;;32.35;29.05;;;20.30;99.90;;;;;;5050005;28;20123;-70
2022/08/26 01:57:22;;;;;;;34.22;30.73;;;20.30;99.90;;;;;;5050593;28;20078;-70
2022/08/26 01:59:49;;;;;;;32.72;29.17;;;20.40;99.90;;;;;;5048066;28;20523;-69
2022/08/26 02:02:15;;;;;;;33.28;29.67;;;20.40;99.90;;;;;;5046921;28;20072;-69
2022/08/26 02:04:55;;;;;;;34.42;29.00;;;20.40;99.90;;;;;;5047135;28;20473;-69
2022/08/26 02:07:23;;;;;;;33.15;29.58;;;20.40;99.90;;;;;;5041250;28;20116;-70
2022/08/26 02:09:49;;;;;;;32.22;28.67;;;20.30;99.90;;;;;;5046706;28;20491;-69
2022/08/26 02:12:17;;;;;;;31.27;27.48;;;20.30;99.90;;;;;;5028355;28;20048;-69
2022/08/26 02:14:49;;;;;;;33.75;28.85;;;20.30;99.90;;;;;;5062368;28;20037;-69
2022/08/26 02:17:17;;;;;;;32.13;28.73;;;20.30;99.90;;;;;;5043769;28;20536;-70
2022/08/26 02:19:48;;;;;;;31.20;27.77;;;20.30;99.90;;;;;;5024349;28;20053;-70
2022/08/26 02:22:19;;;;;;;31.02;26.95;;;20.30;99.90;;;;;;5044392;28;20075;-69
2022/08/26 02:25:12;;;;;;;34.20;27.33;;;20.30;99.90;;;;;;5061055;28;20096;-69
2022/08/26 02:27:39;;;;;;;32.40;25.40;;;20.20;99.90;;;;;;5003394;28;20048;-69
2022/08/26 02:30:16;;;;;;;31.48;25.85;;;20.20;99.90;;;;;;5045531;28;20467;-69
2022/08/26 02:32:42;;;;;;;29.52;23.90;;;20.30;99.90;;;;;;5044628;28;20048;-69
2022/08/26 02:35:10;;;;;;;29.60;22.92;;;20.30;99.90;;;;;;5042761;28;20496;-69
2022/08/26 02:37:36;;;;;;;39.05;24.10;;;20.30;99.90;;;;;;5042823;28;20049;-69
2022/08/26 02:40:04;;;;;;;27.38;23.05;;;20.30;99.90;;;;;;5045039;28;20041;-69
2022/08/26 02:42:30;;;;;;;29.35;22.58;;;20.20;99.90;;;;;;5039501;28;20055;-69
2022/08/26 02:44:56;;;;;;;29.77;20.98;;;20.30;99.90;;;;;;5049974;28;20029;-69
2022/08/26 02:47:22;;;;;;;25.85;20.85;;;20.30;99.90;;;;;;5045733;28;20113;-69
2022/08/26 02:49:47;;;;;;;26.02;21.08;;;20.20;99.90;;;;;;5030789;28;20048;-69
2022/08/26 02:52:13;;;;;;;26.58;20.25;;;20.30;99.90;;;;;;5055141;28;20055;-69
2022/08/26 02:54:39;;;;;;;26.05;20.17;;;20.30;99.90;;;;;;5031450;28;20075;-69
2022/08/26 02:57:04;;;;;;;26.75;18.40;;;20.30;99.90;;;;;;5033528;28;20044;-69
2022/08/26 02:59:30;;;;;;;23.60;19.70;;;20.30;99.90;;;;;;5045355;28;20336;-69
2022/08/26 03:01:56;;;;;;;22.27;18.63;;;20.30;99.90;;;;;;5053398;28;20043;-69
2022/08/26 03:04:22;;;;;;;24.52;18.95;;;20.30;99.90;;;;;;5044467;28;20040;-69
2022/08/26 03:06:49;;;;;;;25.50;18.88;;;20.30;99.90;;;;;;5046967;28;20634;-69
2022/08/26 03:09:17;;;;;;;26.23;17.92;;;20.30;99.90;;;;;;5041500;28;20044;-69
2022/08/26 03:11:45;;;;;;;27.13;18.02;;;20.20;99.90;;;;;;5051933;28;20076;-69
2022/08/26 03:14:12;;;;;;;24.23;17.10;;;20.20;99.90;;;;;;5049404;28;20044;-69
2022/08/26 03:16:38;;;;;;;25.95;18.00;;;20.30;99.90;;;;;;5048066;28;20041;-69
2022/08/26 03:19:06;;;;;;;23.35;17.50;;;20.20;99.90;;;;;;5027878;28;20143;-69
2022/08/26 03:21:32;;;;;;;22.73;17.58;;;20.20;99.90;;;;;;5048521;28;20045;-69
2022/08/26 03:23:59;;;;;;;25.58;18.17;;;20.20;99.90;;;;;;5051311;28;20039;-70
2022/08/26 03:26:25;;;;;;;26.92;18.90;;;20.20;99.90;;;;;;5052257;28;20076;-69
2022/08/26 03:31:35;;;;;;;21.98;16.90;;;20.20;99.90;;;;;;5049921;28;20048;-69
2022/08/26 03:34:02;;;;;;;25.00;18.05;;;20.20;99.90;;;;;;5049582;28;20041;-69
2022/08/26 03:36:28;;;;;;;24.15;16.63;;;20.20;99.90;;;;;;5043119;28;20053;-70
2022/08/26 03:38:53;;;;;;;23.83;16.80;;;20.20;99.90;;;;;;5050844;28;20045;-69
2022/08/26 03:41:20;;;;;;;21.13;16.27;;;20.30;99.90;;;;;;5045310;28;20315;-69
2022/08/26 03:43:47;;;;;;;24.83;16.42;;;20.30;99.90;;;;;;5054880;28;20036;-69
2022/08/26 03:46:12;;;;;;;25.75;16.60;;;20.30;99.90;;;;;;5047030;28;20045;-69
2022/08/26 03:48:39;;;;;;;24.63;15.82;;;20.30;99.90;;;;;;5048157;28;20485;-69
2022/08/26 03:51:12;;;;;;;28.73;16.90;;;20.30;99.90;;;;;;5044015;28;20127;-69
2022/08/26 03:53:38;;;;;;;22.55;16.00;;;20.30;99.90;;;;;;5045196;28;20161;-69
2022/08/26 03:56:05;;;;;;;26.80;15.43;;;20.30;99.90;;;;;;5054311;28;20041;-69
2022/08/26 03:58:31;;;;;;;24.38;15.18;;;20.30;99.90;;;;;;5046213;28;20063;-69
2022/08/26 04:00:57;;;;;;;22.08;14.57;;;20.30;99.90;;;;;;5047488;28;20048;-69
2022/08/26 04:06:09;;;;;;;21.33;14.15;;;20.30;99.90;;;;;;5048656;28;20051;-70
2022/08/26 04:08:34;;;;;;;21.20;14.05;;;20.30;99.90;;;;;;5046296;28;20029;-69
2022/08/26 04:11:01;;;;;;;16.63;12.70;;;20.30;99.90;;;;;;5046124;28;20182;-70
2022/08/26 04:13:28;;;;;;;24.88;13.02;;;20.30;99.90;;;;;;5059087;28;20029;-70
2022/08/26 04:15:54;;;;;;;22.95;13.43;;;20.20;99.90;;;;;;5049914;28;20040;-69
2022/08/26 04:18:20;;;;;;;24.67;12.60;;;20.30;99.90;;;;;;5042705;28;20065;-69
2022/08/26 04:20:46;;;;;;;22.83;13.20;;;20.30;99.90;;;;;;5057653;28;20041;-69
2022/08/26 04:23:12;;;;;;;18.27;12.48;;;20.20;99.90;;;;;;5045404;28;20488;-69
2022/08/26 04:25:39;;;;;;;20.98;12.10;;;20.30;99.90;;;;;;5030516;28;20102;-69
2022/08/26 04:28:05;;;;;;;21.08;11.75;;;20.30;99.90;;;;;;5046551;28;20041;-69
2022/08/26 04:30:31;;;;;;;19.17;11.27;;;20.30;99.90;;;;;;5048140;28;20111;-69
2022/08/26 04:32:57;;;;;;;19.33;11.18;;;20.30;99.90;;;;;;5044117;28;20198;-69
2022/08/26 04:35:23;;;;;;;20.33;11.73;;;20.30;99.90;;;;;;5060675;28;20041;-70
2022/08/26 04:37:50;;;;;;;18.52;11.90;;;20.30;99.90;;;;;;5040133;28;20074;-69
2022/08/26 04:40:15;;;;;;;19.85;11.93;;;20.30;99.90;;;;;;5032604;28;20485;-69
2022/08/26 04:42:41;;;;;;;17.33;11.10;;;20.20;99.90;;;;;;5052871;28;20120;-69
2022/08/26 04:45:07;;;;;;;15.30;10.80;;;20.20;99.90;;;;;;5027967;28;20056;-69
2022/08/26 04:47:33;;;;;;;21.00;10.25;;;20.20;99.90;;;;;;5039154;28;20041;-70
2022/08/26 04:49:59;;;;;;;22.05;10.38;;;20.20;99.90;;;;;;5042010;28;20044;-69
2022/08/26 04:52:25;;;;;;;16.35;10.32;;;20.10;99.90;;;;;;5044711;28;20037;-70
2022/08/26 04:54:51;;;;;;;18.95;9.75;;;20.10;99.90;;;;;;5027723;28;20110;-70
2022/08/26 04:57:17;;;;;;;18.92;9.70;;;20.10;99.90;;;;;;5044011;28;20041;-70
2022/08/26 04:59:43;;;;;;;15.43;9.18;;;20.10;99.90;;;;;;5038649;28;20145;-69
2022/08/26 05:02:09;;;;;;;13.80;9.60;;;20.10;99.90;;;;;;5041227;28;20124;-69
2022/08/26 05:04:34;;;;;;;14.77;9.27;;;20.10;99.90;;;;;;5046597;28;20463;-69
2022/08/26 05:07:00;;;;;;;14.90;10.10;;;20.10;99.90;;;;;;5044254;28;20043;-69
2022/08/26 05:09:26;;;;;;;17.30;9.63;;;20.10;99.90;;;;;;5044458;28;20080;-69
2022/08/26 05:11:52;;;;;;;15.15;8.90;;;20.10;99.90;;;;;;5046239;28;20074;-69
2022/08/26 05:14:19;;;;;;;16.15;8.50;;;20.10;99.90;;;;;;5046155;28;20587;-69
2022/08/26 05:16:45;;;;;;;17.00;8.95;;;20.10;99.90;;;;;;5049429;28;20080;-69
2022/08/26 05:19:11;;;;;;;17.73;8.82;;;20.10;99.90;;;;;;5046053;28;20079;-69
2022/08/26 05:21:37;;;;;;;14.52;8.73;;;20.10;99.90;;;;;;5025708;28;20417;-69
2022/08/26 05:24:04;;;;;;;15.07;8.23;;;20.20;99.90;;;;;;5048325;28;20047;-69
2022/08/26 05:26:30;;;;;;;16.13;7.97;;;20.20;99.90;;;;;;5045862;28;20086;-70
2022/08/26 05:28:56;;;;;;;16.33;8.10;;;20.20;99.90;;;;;;5041200;28;20349;-69
2022/08/26 05:31:29;;;;;;;14.10;8.20;;;20.20;99.90;;;;;;5038275;28;20127;-70
2022/08/26 05:33:56;;;;;;;18.95;9.23;;;20.30;99.90;;;;;;5045009;28;20079;-69
2022/08/26 05:36:23;;;;;;;17.38;7.50;;;20.30;99.90;;;;;;5025119;28;20045;-69
2022/08/26 05:38:49;;;;;;;15.27;8.55;;;20.30;99.90;;;;;;5048896;28;20033;-69
2022/08/26 05:41:18;;;;;;;18.58;8.48;;;20.30;99.90;;;;;;5046451;28;20370;-69
2022/08/26 05:43:44;;;;;;;13.00;8.02;;;20.40;99.90;;;;;;5047706;28;20136;-70
2022/08/26 05:46:10;;;;;;;19.20;8.50;;;20.40;99.90;;;;;;5044093;28;20101;-69
2022/08/26 05:48:36;;;;;;;16.67;7.78;;;20.50;99.90;;;;;;5045422;28;20460;-69
2022/08/26 05:51:05;;;;;;;15.95;6.68;;;20.50;99.90;;;;;;5037626;28;20083;-70
2022/08/26 05:53:31;;;;;;;14.85;6.90;;;20.60;99.90;;;;;;5034549;28;20478;-69
2022/08/26 05:55:58;;;;;;;14.05;6.32;;;20.60;99.90;;;;;;5035591;28;20055;-69
2022/08/26 05:58:24;;;;;;;13.00;6.25;;;20.60;99.90;;;;;;5045755;28;20037;-70
2022/08/26 06:01:13;;;;;;;15.30;6.25;;;20.60;99.90;;;;;;5041676;28;20060;-70
2022/08/26 06:03:43;;;;;;;16.25;6.30;;;20.70;99.90;;;;;;5048504;28;20044;-70
2022/08/26 06:06:12;;;;;;;12.65;6.50;;;20.70;99.90;;;;;;5059812;28;20053;-70
2022/08/26 06:08:38;;;;;;;16.17;6.30;;;20.70;99.90;;;;;;5032486;28;20395;-69
2022/08/26 06:11:09;;;;;;;18.63;5.75;;;20.70;99.90;;;;;;5047174;28;20106;-70
2022/08/26 06:13:36;;;;;;;13.77;5.78;;;20.70;99.90;;;;;;5054499;28;20144;-70
2022/08/26 06:16:11;;;;;;;15.55;5.57;;;20.70;99.90;;;;;;5040457;28;20055;-70
2022/08/26 06:18:40;;;;;;;12.35;5.68;;;20.70;99.90;;;;;;5038581;28;20490;-69
2022/08/26 06:21:17;;;;;;;17.02;6.53;;;20.70;99.90;;;;;;5049465;28;20070;-69
2022/08/26 06:26:30;;;;;;;15.90;5.90;;;20.70;99.90;;;;;;5047035;28;20071;-70
2022/08/26 06:28:56;;;;;;;14.48;5.85;;;20.70;99.90;;;;;;5047766;28;20091;-69
2022/08/26 06:31:22;;;;;;;15.02;6.32;;;20.70;99.90;;;;;;5047189;28;20052;-70
2022/08/26 06:33:49;;;;;;;15.10;5.53;;;20.80;99.90;;;;;;5047450;28;20044;-70
2022/08/26 06:36:21;;;;;;;17.02;6.40;;;20.80;99.90;;;;;;5044744;28;20083;-69
2022/08/26 06:38:49;;;;;;;14.43;5.55;;;20.80;99.90;;;;;;5040771;28;20041;-69
2022/08/26 06:41:15;;;;;;;15.23;5.88;;;20.80;99.90;;;;;;5045022;28;20071;-70
2022/08/26 06:43:42;;;;;;;13.93;5.03;;;20.80;99.90;;;;;;5043528;28;20464;-70
2022/08/26 06:46:11;;;;;;;11.43;4.43;;;20.80;99.90;;;;;;5050049;28;20055;-69
2022/08/26 06:48:38;;;;;;;16.23;4.50;;;20.90;99.90;;;;;;5048435;28;20045;-69
2022/08/26 06:51:17;;;;;;;11.45;4.45;;;20.90;99.90;;;;;;5047376;28;20041;-69
2022/08/26 06:53:45;;;;;;;15.63;4.65;;;20.80;99.90;;;;;;5048351;28;20040;-70
2022/08/26 06:56:13;;;;;;;11.55;4.50;;;20.80;99.90;;;;;;5048893;28;20049;-69
2022/08/26 06:58:40;;;;;;;12.45;4.47;;;20.80;99.90;;;;;;5029200;28;20056;-70
2022/08/26 07:01:20;;;;;;;12.77;4.05;;;20.80;99.90;;;;;;5026998;28;20079;-69
2022/08/26 07:03:47;;;;;;;13.70;4.80;;;20.90;99.90;;;;;;5041254;28;20072;-69
2022/08/26 07:06:13;;;;;;;18.42;4.75;;;20.90;99.90;;;;;;5045097;28;20091;-69
2022/08/26 07:08:39;;;;;;;16.08;4.38;;;20.90;99.90;;;;;;5066974;28;20095;-69
2022/08/26 07:11:07;;;;;;;15.95;4.50;;;20.90;99.90;;;;;;5045767;28;20157;-68
2022/08/26 07:13:36;;;;;;;10.75;4.25;;;21.00;99.90;;;;;;5048095;28;20044;-68
2022/08/26 07:16:07;;;;;;;14.93;4.00;;;21.00;99.90;;;;;;5050624;28;20500;-69
2022/08/26 07:18:35;;;;;;;13.05;4.25;;;21.00;99.90;;;;;;5045627;28;20166;-67
2022/08/26 07:21:06;;;;;;;11.25;3.75;;;21.00;99.90;;;;;;5049757;28;20154;-69
2022/08/26 07:23:33;;;;;;;14.82;4.40;;;21.00;99.90;;;;;;5049346;28;20083;-70
2022/08/26 07:26:03;;;;;;;13.35;4.53;;;20.90;99.90;;;;;;5046524;28;20553;-70
2022/08/26 07:28:29;;;;;;;14.02;4.28;;;20.90;99.90;;;;;;5040725;28;20073;-70
2022/08/26 07:30:55;;;;;;;13.73;3.83;;;20.90;99.90;;;;;;5042084;28;20037;-69
2022/08/26 07:33:21;;;;;;;14.25;4.10;;;20.80;99.90;;;;;;5044953;28;20036;-70
2022/08/26 07:35:47;;;;;;;13.73;4.05;;;20.80;99.90;;;;;;5041142;28;20115;-71
2022/08/26 07:38:12;;;;;;;16.20;4.15;;;20.80;99.90;;;;;;5034765;28;20148;-70
2022/08/26 07:40:39;;;;;;;13.32;3.58;;;20.70;99.90;;;;;;5064866;28;20075;-70
2022/08/26 07:43:06;;;;;;;13.10;3.60;;;20.70;99.90;;;;;;5048629;28;20396;-71
2022/08/26 07:45:33;;;;;;;14.35;3.95;;;20.70;99.90;;;;;;5031072;28;20055;-69
2022/08/26 07:47:58;;;;;;;11.85;3.53;;;20.70;99.90;;;;;;5052052;28;20045;-70
2022/08/26 07:50:24;;;;;;;14.25;3.72;;;20.70;99.90;;;;;;5051637;28;20412;-69
2022/08/26 07:52:50;;;;;;;14.48;3.53;;;20.70;99.90;;;;;;5031985;28;20476;-70
2022/08/26 07:55:16;;;;;;;13.13;3.30;;;20.70;99.90;;;;;;5027150;28;20140;-69
2022/08/26 07:57:42;;;;;;;12.38;3.60;;;20.70;99.90;;;;;;5045196;28;20071;-70
2022/08/26 08:00:11;;;;;;;9.40;3.10;;;20.70;99.90;;;;;;5031641;28;20083;-69
2022/08/26 08:02:37;;;;;;;11.18;3.25;;;20.70;99.90;;;;;;5048102;28;20512;-69
2022/08/26 08:05:03;;;;;;;11.13;3.10;;;20.70;99.90;;;;;;5044933;28;20044;-71
2022/08/26 08:07:29;;;;;;;17.95;3.45;;;20.80;99.90;;;;;;5030341;28;20573;-71
2022/08/26 08:09:55;;;;;;;9.27;2.40;;;20.80;99.90;;;;;;5043923;28;20041;-69
2022/08/26 08:12:20;;;;;;;8.15;2.15;;;20.80;99.90;;;;;;5032002;28;20040;-70
2022/08/26 08:14:47;;;;;;;10.45;2.80;;;20.80;99.90;;;;;;5041692;28;20044;-70
2022/08/26 08:17:13;;;;;;;8.60;2.20;;;20.80;99.90;;;;;;5046222;28;20045;-71
2022/08/26 08:19:39;;;;;;;9.07;2.03;;;20.80;99.90;;;;;;5064034;28;20092;-70
2022/08/26 08:22:06;;;;;;;8.23;2.05;;;20.80;99.90;;;;;;5027991;28;20139;-71
2022/08/26 08:24:32;;;;;;;7.88;1.85;;;20.80;99.90;;;;;;5046701;28;20040;-69
2022/08/26 08:27:02;;;;;;;11.50;2.20;;;20.80;99.90;;;;;;5045534;28;20495;-70
2022/08/26 08:29:28;;;;;;;8.80;1.95;;;20.80;99.90;;;;;;5046286;28;20047;-70
2022/08/26 08:31:55;;;;;;;12.43;2.47;;;20.80;99.90;;;;;;5034741;28;20049;-70
2022/08/26 08:34:22;;;;;;;11.10;2.03;;;20.80;99.90;;;;;;5032103;28;20052;-70
2022/08/26 08:36:49;;;;;;;24.35;15.88;;;20.80;99.90;;;;;;5028896;28;20060;-71
2022/08/26 08:39:15;;;;;;;9.52;2.70;;;20.80;99.90;;;;;;5025498;28;20040;-70
2022/08/26 08:41:44;;;;;;;8.68;1.90;;;20.90;99.90;;;;;;5035687;28;20378;-70
2022/08/26 08:44:18;;;;;;;9.73;2.28;;;21.00;99.90;;;;;;5030353;28;20056;-69
2022/08/26 08:46:49;;;;;;;10.00;1.58;;;21.00;99.90;;;;;;5025669;28;20061;-70
2022/08/26 08:49:15;;;;;;;7.78;1.83;;;21.00;99.90;;;;;;5050669;28;20476;-70
2022/08/26 08:51:50;;;;;;;7.20;1.60;;;21.10;99.90;;;;;;5049540;28;20423;-69
2022/08/26 08:54:18;;;;;;;6.82;1.65;;;21.10;99.90;;;;;;5048156;28;20045;-70
2022/08/26 08:56:51;;;;;;;8.00;2.00;;;21.00;99.90;;;;;;5029308;28;20048;-70
2022/08/26 08:59:22;;;;;;;13.65;2.30;;;21.00;99.90;;;;;;5045792;28;20048;-70
2022/08/26 09:01:51;;;;;;;4.57;1.08;;;21.00;99.90;;;;;;5041060;28;20033;-70
2022/08/26 09:04:44;;;;;;;7.72;1.23;;;21.00;99.90;;;;;;5046140;28;20041;-69
2022/08/26 09:07:16;;;;;;;9.32;1.80;;;21.00;99.90;;;;;;5025170;28;20049;-70
2022/08/26 09:09:53;;;;;;;7.00;1.20;;;20.90;99.90;;;;;;5046024;28;20041;-69
2022/08/26 09:12:26;;;;;;;10.95;1.80;;;20.90;99.90;;;;;;5045545;28;20095;-69
2022/08/26 09:15:16;;;;;;;6.25;1.08;;;20.90;99.90;;;;;;5051521;28;20103;-69
2022/08/26 09:18:03;;;;;;;9.68;1.40;;;20.90;99.90;;;;;;5042842;28;20048;-71
2022/08/26 09:20:51;;;;;;;9.15;1.67;;;20.90;99.90;;;;;;5048156;28;20036;-70
2022/08/26 09:23:18;;;;;;;9.18;1.50;;;21.00;99.90;;;;;;5044032;28;20047;-71
2022/08/26 09:25:59;;;;;;;7.57;1.40;;;21.00;99.90;;;;;;5058093;28;20139;-70
2022/08/26 09:28:27;;;;;;;8.93;1.38;;;21.10;99.90;;;;;;5040511;28;20206;-70
2022/08/26 09:31:13;;;;;;;6.45;1.27;;;21.10;99.90;;;;;;5043082;28;20044;-71
2022/08/26 09:33:40;;;;;;;8.48;1.55;;;21.20;99.90;;;;;;5057467;28;20120;-68
2022/08/26 09:36:25;;;;;;;8.75;1.25;;;21.20;99.90;;;;;;5042524;28;20404;-70
2022/08/26 09:38:51;;;;;;;;;;;21.30;99.90;;;;;;5042642;28;20040;-69
2022/08/26 09:41:32;;;;;;;7.00;1.10;;;21.20;99.90;;;;;;5047067;28;19922;-69
2022/08/26 09:44:10;;;;;;;6.80;1.08;;;21.30;99.90;;;;;;5043884;28;20106;-70
2022/08/26 09:46:38;;;;;;;8.73;1.30;;;21.20;99.90;;;;;;5046739;28;20603;-71
2022/08/26 09:49:25;;;;;;;7.25;1.55;;;21.20;99.90;;;;;;5025481;28;20036;-70
2022/08/26 09:52:12;;;;;;;7.22;1.48;;;21.30;99.90;;;;;;5044417;28;20047;-69
2022/08/26 09:54:39;;;;;;;7.13;1.42;;;21.40;99.90;;;;;;5042742;28;20040;-69
2022/08/26 09:57:23;;;;;;;9.00;1.42;;;21.40;99.90;;;;;;5047065;28;20519;-70
2022/08/26 09:59:49;;;;;;;;;;;21.40;99.90;;;;;;5046156;28;20089;-69
2022/08/26 10:02:40;;;;;;;7.97;1.30;;;21.30;99.90;;;;;;5034349;28;20133;-70
2022/08/26 10:05:14;;;;;;;9.05;1.75;;;21.30;99.90;;;;;;5068292;28;20432;-70
2022/08/26 10:07:49;;;;;;;9.18;1.40;;;21.30;99.90;;;;;;5050334;28;20040;-70
2022/08/26 10:10:31;;;;;;;9.48;1.52;;;21.40;99.90;;;;;;5043556;28;20401;-69
2022/08/26 10:13:30;;;;;;;9.52;1.90;;;21.50;99.90;;;;;;5056250;28;20037;-71
2022/08/26 10:16:04;;;;;;;10.07;1.30;;;21.50;99.90;;;;;;5015733;28;20056;-69
2022/08/26 10:18:38;;;;;;;8.75;1.75;;;21.60;99.90;;;;;;5045821;28;20189;-68
2022/08/26 10:21:34;;;;;;;10.63;1.58;;;21.60;99.90;;;;;;5053912;28;20072;-69
2022/08/26 10:24:02;;;;;;;5.88;1.15;;;21.60;99.90;;;;;;5047425;28;20033;-68
2022/08/26 10:26:57;;;;;;;5.75;1.38;;;21.70;99.90;;;;;;5046549;28;20107;-69
2022/08/26 10:29:38;;;;;;;6.40;1.42;;;21.70;99.90;;;;;;5047941;28;20184;-69
2022/08/26 10:32:11;;;;;;;6.28;1.45;;;21.70;99.90;;;;;;5049765;28;20041;-69
2022/08/26 10:34:37;;;;;;;8.75;1.67;;;21.70;99.90;;;;;;5044388;28;20106;-70
2022/08/26 10:37:13;;;;;;;9.88;1.40;;;21.60;99.90;;;;;;5022916;28;20053;-70
2022/08/26 10:39:50;;;;;;;8.55;1.50;;;21.60;99.90;;;;;;5038620;28;20044;-68
2022/08/26 10:42:35;;;;;;;8.45;1.70;;;21.70;99.90;;;;;;5043085;28;20039;-69
2022/08/26 10:45:12;;;;;;;7.30;1.48;;;21.70;99.90;;;;;;5046751;28;20080;-70
2022/08/26 10:47:50;;;;;;;6.25;1.25;;;21.70;99.90;;;;;;5046236;28;20048;-69
2022/08/26 10:50:17;;;;;;;10.63;1.80;;;21.70;99.90;;;;;;5033597;28;20413;-70
2022/08/26 10:52:51;;;;;;;6.88;1.30;;;21.80;99.90;;;;;;5047914;28;20132;-69
2022/08/26 10:55:56;;;;;;;5.40;1.33;;;21.90;99.90;;;;;;5046972;28;20393;-68
2022/08/26 10:58:39;;;;;;;8.02;1.48;;;22.10;99.90;;;;;;5046957;28;20106;-68
2022/08/26 11:01:41;;;;;;;8.15;1.48;;;22.10;99.90;;;;;;5024549;28;20048;-68
2022/08/26 11:04:41;;;;;;;9.07;1.65;;;22.20;99.90;;;;;;5048473;28;20040;-69
2022/08/26 11:07:29;;;;;;;5.97;1.45;;;22.10;99.90;;;;;;5037608;28;20099;-68
2022/08/26 11:10:06;;;;;;;10.05;1.52;;;22.00;99.90;;;;;;5033341;28;20036;-69
2022/08/26 11:12:35;;;;;;;7.47;1.45;;;21.90;99.90;;;;;;5043607;28;20488;-69
2022/08/26 11:15:04;;;;;;;9.15;1.58;;;21.70;99.90;;;;;;5032718;28;20379;-68
2022/08/26 11:17:45;;;;;;;10.10;1.30;;;21.60;99.90;;;;;;5045929;28;20053;-68
2022/08/26 11:20:45;;;;;;;8.60;1.70;;;21.50;99.90;;;;;;5047106;28;20202;-69
2022/08/26 11:23:22;;;;;;;7.15;1.25;;;21.40;99.90;;;;;;5061816;28;20230;-69
2022/08/26 11:26:04;;;;;;;9.18;1.70;;;21.30;99.90;;;;;;5047514;28;20044;-69
2022/08/26 11:28:40;;;;;;;9.48;1.52;;;21.20;99.90;;;;;;5038409;28;20049;-70
2022/08/26 11:31:31;;;;;;;8.23;1.40;;;21.20;99.90;;;;;;5047449;28;20036;-70
2022/08/26 11:33:58;;;;;;;10.10;1.50;;;21.10;99.90;;;;;;5050917;28;20105;-69
2022/08/26 11:36:41;;;;;;;8.40;1.58;;;21.00;99.90;;;;;;5048178;28;20037;-68
2022/08/26 11:39:13;;;;;;;7.55;1.10;;;21.00;99.90;;;;;;5046832;28;20154;-70
2022/08/26 11:41:43;;;;;;;10.65;2.03;;;21.00;99.90;;;;;;5045388;28;20087;-69
2022/08/26 11:44:09;;;;;;;8.88;1.30;;;21.00;99.90;;;;;;5050365;28;20451;-69
2022/08/26 11:46:36;;;;;;;8.52;1.02;;;21.00;99.90;;;;;;5045266;28;20041;-70
2022/08/26 11:49:05;;;;;;;7.88;1.27;;;20.90;99.90;;;;;;5051394;28;20091;-69
2022/08/26 11:51:32;;;;;;;9.93;1.83;;;20.90;99.90;;;;;;5046265;28;20041;-69
2022/08/26 11:54:11;;;;;;;7.55;1.52;;;20.90;99.90;;;;;;5050687;28;20051;-70
2022/08/26 11:56:39;;;;;;;11.15;1.52;;;20.80;99.90;;;;;;5041724;28;20049;-69
2022/08/26 11:59:10;;;;;;;10.32;1.35;;;20.80;99.90;;;;;;5041389;28;20041;-70
2022/08/26 12:01:38;;;;;;;6.65;1.10;;;20.80;99.90;;;;;;5031729;28;20049;-70
2022/08/26 12:04:06;;;;;;;9.23;1.27;;;20.90;99.90;;;;;;5030260;28;20041;-70
2022/08/26 12:06:39;;;;;;;7.93;1.40;;;20.90;99.90;;;;;;5046512;28;20048;-68
2022/08/26 12:09:12;;;;;;;6.72;1.02;;;20.90;99.90;;;;;;5046966;28;20555;-68
2022/08/26 12:11:38;;;;;;;6.63;1.25;;;20.90;99.90;;;;;;5046904;28;20072;-68
2022/08/26 12:14:14;;;;;;;7.32;1.00;;;21.00;99.90;;;;;;5048483;28;20056;-69
2022/08/26 12:16:39;;;;;;;6.30;1.00;;;21.00;99.90;;;;;;5038434;28;20562;-67
2022/08/26 12:19:25;;;;;;;4.63;0.70;;;21.10;99.90;;;;;;5041585;28;20045;-68
2022/08/26 12:22:03;;;;;;;4.97;0.90;;;21.20;99.90;;;;;;5034622;28;20374;-69
2022/08/26 12:24:29;;;;;;;6.72;1.08;;;21.20;99.90;;;;;;5062666;28;20043;-69
2022/08/26 12:27:26;;;;;;;6.60;1.00;;;21.10;99.90;;;;;;5044211;28;20516;-69
2022/08/26 12:30:13;;;;;;;6.28;0.82;;;21.00;99.90;;;;;;5024196;28;20053;-69
2022/08/26 12:32:42;;;;;;;4.05;0.90;;;21.00;99.90;;;;;;5024030;28;20474;-69
2022/08/26 12:35:09;;;;;;;5.65;0.77;;;21.20;99.90;;;;;;5064295;28;20052;-68
2022/08/26 12:37:38;;;;;;;6.70;0.95;;;21.30;99.90;;;;;;5043729;28;20424;-69
2022/08/26 12:40:24;;;;;;;6.72;1.15;;;21.30;99.90;;;;;;5037230;28;20037;-68
2022/08/26 12:42:50;;;;;;;9.38;1.20;;;21.40;99.90;;;;;;5043381;28;20488;-68
2022/08/26 12:45:42;;;;;;;4.03;0.90;;;21.40;99.90;;;;;;5039263;28;20063;-68
2022/08/26 12:48:23;;;;;;;6.03;0.98;;;21.30;99.90;;;;;;5065235;28;20041;-67
2022/08/26 12:50:51;;;;;;;8.43;0.80;;;21.20;99.90;;;;;;5044787;28;20527;-69
2022/08/26 12:53:26;;;;;;;3.13;0.85;;;21.10;99.90;;;;;;5044037;28;20057;-70
2022/08/26 12:55:57;;;;;;;4.03;0.75;;;21.10;99.90;;;;;;5042476;28;20464;-69
2022/08/26 12:58:28;;;;;;;4.38;0.70;;;21.10;99.90;;;;;;5041811;28;20369;-69
2022/08/26 13:01:03;;;;;;;5.97;0.88;;;21.10;99.90;;;;;;5044679;28;20145;-69